createdAt,value
2023-03-03T00:02:03.385Z,-3.69
2023-03-03T00:04:31.679Z,-3.71
2023-03-03T00:07:00.504Z,-3.72
2023-03-03T00:09:28.536Z,-3.83
2023-03-03T00:11:58.973Z,-3.76
2023-03-03T00:14:30.934Z,-3.75
2023-03-03T00:17:04.543Z,-3.75
2023-03-03T00:19:39.180Z,-3.71
2023-03-03T00:22:18.626Z,-3.69
2023-03-03T00:24:47.498Z,-3.80
2023-03-03T00:27:24.458Z,-3.81
2023-03-03T00:29:56.847Z,-3.90
2023-03-03T00:32:28.031Z,-3.90
2023-03-03T00:34:57.634Z,-3.89
2023-03-03T00:37:31.602Z,-3.93
2023-03-03T00:40:14.633Z,-3.80
2023-03-03T00:42:43.226Z,-3.82
2023-03-03T00:45:27.331Z,-3.79
2023-03-03T00:47:57.358Z,-3.63
2023-03-03T00:50:34.776Z,-3.50
2023-03-03T00:53:05.868Z,-3.41
2023-03-03T00:55:35.113Z,-3.38
2023-03-03T00:58:03.469Z,-3.26
2023-03-03T01:00:37.419Z,-3.28
2023-03-03T01:03:11.432Z,-3.35
2023-03-03T01:05:39.797Z,-3.56
2023-03-03T01:08:08.531Z,-3.83
2023-03-03T01:10:41.236Z,-4.39
2023-03-03T01:13:10.238Z,-4.58
2023-03-03T01:15:40.855Z,-4.59
2023-03-03T01:18:10.817Z,-4.41
2023-03-03T01:20:39.295Z,-4.27
2023-03-03T01:23:07.808Z,-4.02
2023-03-03T01:25:36.122Z,-4.18
2023-03-03T01:28:04.867Z,-4.21
2023-03-03T01:30:33.418Z,-4.05
2023-03-03T01:33:01.810Z,-4.04
2023-03-03T01:35:31.283Z,-3.68
2023-03-03T01:38:00.112Z,-3.65
2023-03-03T01:40:31.875Z,-3.64
2023-03-03T01:43:01.030Z,-3.63
2023-03-03T01:45:31.222Z,-3.64
2023-03-03T01:48:03.087Z,-3.61
2023-03-03T01:50:42.813Z,-3.59
2023-03-03T01:53:16.713Z,-3.55
2023-03-03T01:55:46.799Z,-3.45
2023-03-03T01:58:18.290Z,-3.35
2023-03-03T02:00:51.666Z,-3.39
2023-03-03T02:03:23.441Z,-3.36
2023-03-03T02:05:56.932Z,-3.44
2023-03-03T02:08:31.678Z,-3.45
2023-03-03T02:11:00.191Z,-3.32
2023-03-03T02:13:28.481Z,-3.51
2023-03-03T02:15:59.251Z,-3.55
2023-03-03T02:18:28.770Z,-3.64
2023-03-03T02:21:05.232Z,-3.68
2023-03-03T02:23:39.767Z,-3.62
2023-03-03T02:26:14.931Z,-3.69
2023-03-03T02:28:44.262Z,-3.69
2023-03-03T02:31:17.393Z,-3.67
2023-03-03T02:33:47.950Z,-3.69
2023-03-03T02:36:18.444Z,-3.68
2023-03-03T02:38:52.969Z,-3.77
2023-03-03T02:41:30.658Z,-3.85
2023-03-03T02:44:02.988Z,-3.94
2023-03-03T02:46:35.700Z,-4.00
2023-03-03T02:49:04.843Z,-4.01
2023-03-03T02:51:33.920Z,-4.00
2023-03-03T02:54:02.220Z,-3.96
2023-03-03T02:56:34.995Z,-3.95
2023-03-03T02:59:03.093Z,-3.82
2023-03-03T03:01:37.249Z,-3.82
2023-03-03T03:04:11.310Z,-3.84
2023-03-03T03:06:44.178Z,-3.85
2023-03-03T03:09:14.541Z,-3.92
2023-03-03T03:11:45.229Z,-3.82
2023-03-03T03:14:16.079Z,-3.81
2023-03-03T03:16:45.234Z,-3.81
2023-03-03T03:19:13.405Z,-3.74
2023-03-03T03:21:42.086Z,-3.66
2023-03-03T03:24:11.768Z,-3.80
2023-03-03T03:26:46.355Z,-3.84
2023-03-03T03:29:15.700Z,-3.79
2023-03-03T03:31:45.004Z,-3.81
2023-03-03T03:34:13.268Z,-3.94
2023-03-03T03:36:41.605Z,-3.87
2023-03-03T03:39:10.437Z,-3.83
2023-03-03T03:41:43.275Z,-3.86
2023-03-03T03:44:13.079Z,-3.76
2023-03-03T03:46:41.251Z,-3.69
2023-03-03T03:49:09.593Z,-3.70
2023-03-03T03:51:41.338Z,-3.66
2023-03-03T03:54:11.372Z,-3.68
2023-03-03T03:56:40.401Z,-3.69
2023-03-03T03:59:09.438Z,-3.65
2023-03-03T04:01:40.234Z,-3.56
2023-03-03T04:04:08.252Z,-3.50
2023-03-03T04:06:36.559Z,-3.55
2023-03-03T04:09:06.929Z,-3.34
2023-03-03T04:11:35.171Z,-3.40
2023-03-03T04:14:05.827Z,-3.42
2023-03-03T04:16:35.381Z,-3.44
2023-03-03T04:19:05.804Z,-3.45
2023-03-03T04:21:36.443Z,-3.40
2023-03-03T04:24:04.619Z,-3.29
2023-03-03T04:26:33.503Z,-3.30
2023-03-03T04:29:04.022Z,-3.32
2023-03-03T04:31:32.660Z,-3.45
2023-03-03T04:34:01.954Z,-3.50
2023-03-03T04:36:32.735Z,-3.52
2023-03-03T04:39:01.414Z,-3.60
2023-03-03T04:41:29.535Z,-3.67
2023-03-03T04:43:57.804Z,-3.59
2023-03-03T04:46:26.065Z,-3.68
2023-03-03T04:48:55.503Z,-3.67
2023-03-03T04:51:24.372Z,-3.75
2023-03-03T04:53:54.309Z,-3.68
2023-03-03T04:56:23.106Z,-3.68
2023-03-03T04:58:51.502Z,-3.64
2023-03-03T05:01:19.775Z,-3.60
2023-03-03T05:03:48.483Z,-3.49
2023-03-03T05:06:18.803Z,-3.49
2023-03-03T05:08:47.168Z,-3.56
2023-03-03T05:11:16.953Z,-3.43
2023-03-03T05:13:46.085Z,-3.47
2023-03-03T05:16:15.599Z,-3.47
2023-03-03T05:18:43.685Z,-3.44
2023-03-03T05:21:12.151Z,-3.49
2023-03-03T05:23:40.384Z,-3.48
2023-03-03T05:26:08.482Z,-3.41
2023-03-03T05:28:38.108Z,-3.46
2023-03-03T05:31:06.477Z,-3.49
2023-03-03T05:33:34.725Z,-3.47
2023-03-03T05:36:03.412Z,-3.41
2023-03-03T05:38:31.405Z,-3.40
2023-03-03T05:40:59.684Z,-3.34
2023-03-03T05:43:28.418Z,-3.34
2023-03-03T05:46:00.961Z,-3.30
2023-03-03T05:48:29.334Z,-3.22
2023-03-03T05:50:59.783Z,-3.15
2023-03-03T05:53:28.158Z,-3.14
2023-03-03T05:55:56.921Z,-3.14
2023-03-03T05:58:25.683Z,-3.25
2023-03-03T06:00:53.874Z,-3.23
2023-03-03T06:03:23.517Z,-3.31
2023-03-03T06:05:51.933Z,-3.36
2023-03-03T06:08:20.283Z,-3.33
2023-03-03T06:10:48.837Z,-3.42
2023-03-03T06:13:17.707Z,-3.42
2023-03-03T06:15:46.090Z,-3.48
2023-03-03T06:18:14.401Z,-3.34
2023-03-03T06:20:44.202Z,-3.28
2023-03-03T06:23:12.930Z,-3.29
2023-03-03T06:25:40.923Z,-3.25
2023-03-03T06:28:08.941Z,-3.25
2023-03-03T06:30:37.041Z,-3.37
2023-03-03T06:33:05.211Z,-3.38
2023-03-03T06:35:33.257Z,-3.31
2023-03-03T06:38:02.803Z,-3.22
2023-03-03T06:40:32.085Z,-3.07
2023-03-03T06:43:02.439Z,-3.12
2023-03-03T06:45:30.672Z,-3.18
2023-03-03T06:47:58.828Z,-3.14
2023-03-03T06:50:26.940Z,-3.06
2023-03-03T06:53:06.577Z,-2.98
2023-03-03T06:55:35.213Z,-2.93
2023-03-03T06:58:04.378Z,-2.82
2023-03-03T07:00:32.664Z,-2.77
2023-03-03T07:03:02.824Z,-2.88
2023-03-03T07:05:31.167Z,-2.96
2023-03-03T07:07:59.519Z,-2.86
2023-03-03T07:10:31.462Z,-2.83
2023-03-03T07:13:12.133Z,-2.89
2023-03-03T07:15:40.212Z,-2.91
2023-03-03T07:18:26.767Z,-2.84
2023-03-03T07:20:55.036Z,-2.76
2023-03-03T07:23:26.526Z,-2.72
2023-03-03T07:25:56.571Z,-2.83
2023-03-03T07:28:27.192Z,-2.89
2023-03-03T07:30:57.360Z,-2.78
2023-03-03T07:33:28.354Z,-2.76
2023-03-03T07:35:58.504Z,-2.61
2023-03-03T07:38:37.196Z,-2.41
2023-03-03T07:41:13.698Z,-2.40
2023-03-03T07:43:49.585Z,-2.32
2023-03-03T07:46:29.191Z,-2.38
2023-03-03T07:48:58.750Z,-2.28
2023-03-03T07:51:29.306Z,-2.39
2023-03-03T07:54:18.962Z,-2.26
2023-03-03T07:56:49.034Z,-2.35
2023-03-03T07:59:22.374Z,-2.48
2023-03-03T08:02:29.584Z,-2.55
2023-03-03T08:04:57.732Z,-2.57
2023-03-03T08:07:26.156Z,-2.57
2023-03-03T08:10:00.211Z,-2.43
2023-03-03T08:12:43.063Z,-2.29
2023-03-03T08:15:26.288Z,-2.27
2023-03-03T08:17:57.120Z,-2.26
2023-03-03T08:20:45.056Z,-2.33
2023-03-03T08:23:14.294Z,-2.41
2023-03-03T08:25:43.803Z,-2.27
2023-03-03T08:28:14.168Z,-2.28
2023-03-03T08:30:43.650Z,-2.19
2023-03-03T08:33:12.151Z,-2.08
2023-03-03T08:35:40.424Z,-2.07
2023-03-03T08:38:09.495Z,-2.15
2023-03-03T08:40:38.228Z,-2.00
2023-03-03T08:43:06.838Z,-1.91
2023-03-03T08:45:37.276Z,-1.80
2023-03-03T08:48:06.390Z,-1.90
2023-03-03T08:50:34.809Z,-1.87
2023-03-03T08:53:02.992Z,-1.90
2023-03-03T08:55:31.803Z,-1.93
2023-03-03T08:58:00.284Z,-1.89
2023-03-03T09:00:28.965Z,-1.85
2023-03-03T09:02:58.881Z,-1.94
2023-03-03T09:05:27.885Z,-1.66
2023-03-03T09:07:56.690Z,-1.75
2023-03-03T09:10:29.492Z,-1.56
2023-03-03T09:13:01.274Z,-1.68
2023-03-03T09:15:31.007Z,-1.59
2023-03-03T09:18:06.956Z,-1.37
2023-03-03T09:20:41.149Z,-1.47
2023-03-03T09:23:36.643Z,-1.39
2023-03-03T09:26:27.018Z,-1.38
2023-03-03T09:28:57.673Z,-1.14
2023-03-03T09:31:28.832Z,-1.10
2023-03-03T09:33:59.505Z,-1.26
2023-03-03T09:36:30.455Z,-1.27
2023-03-03T09:38:59.714Z,-1.14
2023-03-03T09:41:48.533Z,-1.20
2023-03-03T09:44:31.773Z,-1.25
2023-03-03T09:47:18.096Z,-1.33
2023-03-03T09:50:01.429Z,-1.55
2023-03-03T09:52:42.507Z,-1.63
2023-03-03T09:55:29.620Z,-1.46
2023-03-03T09:58:12.849Z,-1.54
2023-03-03T10:00:48.937Z,-1.41
2023-03-03T10:03:54.252Z,-1.45
2023-03-03T10:06:30.354Z,-1.41
2023-03-03T10:09:33.297Z,-1.27
2023-03-03T10:12:09.207Z,-1.25
2023-03-03T10:14:51.880Z,-1.27
2023-03-03T10:17:30.792Z,-1.22
2023-03-03T10:20:13.240Z,-1.28
2023-03-03T10:22:51.832Z,-1.26
2023-03-03T10:25:30.686Z,-1.22
2023-03-03T10:28:30.504Z,-1.36
2023-03-03T10:31:15.503Z,-1.31
2023-03-03T10:33:54.560Z,-1.34
2023-03-03T10:36:35.831Z,-1.06
2023-03-03T10:39:34.979Z,-0.92
2023-03-03T10:42:16.816Z,-0.69
2023-03-03T10:45:06.693Z,-0.73
2023-03-03T10:47:51.774Z,-0.84
2023-03-03T10:50:25.187Z,-0.86
2023-03-03T10:52:58.965Z,-0.56
2023-03-03T10:55:39.543Z,-0.65
2023-03-03T10:58:22.618Z,-0.90
2023-03-03T11:00:58.452Z,-0.97
2023-03-03T11:04:07.708Z,-1.02
2023-03-03T11:06:46.659Z,-0.86
2023-03-03T11:09:39.210Z,-0.86
2023-03-03T11:12:17.478Z,-0.98
2023-03-03T11:14:53.047Z,-1.09
2023-03-03T11:17:27.890Z,-1.03
2023-03-03T11:20:05.071Z,-1.02
2023-03-03T11:22:40.828Z,-0.89
2023-03-03T11:25:23.757Z,-0.87
2023-03-03T11:28:10.787Z,-0.78
2023-03-03T11:31:01.453Z,-0.95
2023-03-03T11:33:37.769Z,-0.87
2023-03-03T11:36:13.461Z,-0.72
2023-03-03T11:38:49.600Z,-0.86
2023-03-03T11:41:34.271Z,-0.99
2023-03-03T11:44:12.301Z,-0.80
2023-03-03T11:46:47.820Z,-0.67
2023-03-03T11:49:23.599Z,-0.86
2023-03-03T11:52:01.790Z,-0.85
2023-03-03T11:54:35.461Z,-0.78
2023-03-03T11:57:19.946Z,-0.48
2023-03-03T12:00:08.500Z,-0.57
2023-03-03T12:03:15.588Z,-0.52
2023-03-03T12:05:56.375Z,-0.28
2023-03-03T12:08:44.055Z,-0.38
2023-03-03T12:11:23.186Z,-0.24
2023-03-03T12:13:57.844Z,-0.44
2023-03-03T12:16:40.757Z,-0.47
2023-03-03T12:19:20.636Z,-0.74
2023-03-03T12:22:06.457Z,-0.60
2023-03-03T12:24:46.733Z,-0.34
2023-03-03T12:27:24.043Z,-0.23
2023-03-03T12:30:06.670Z,-0.07
2023-03-03T12:32:57.034Z,0.05
2023-03-03T12:35:36.562Z,0.08
2023-03-03T12:38:14.819Z,0.07
2023-03-03T12:40:53.865Z,-0.02
2023-03-03T12:43:36.739Z,0.09
2023-03-03T12:46:12.436Z,-0.12
2023-03-03T12:48:43.687Z,-0.15
2023-03-03T12:51:23.071Z,-0.19
2023-03-03T12:54:12.360Z,-0.09
2023-03-03T12:56:45.919Z,-0.28
2023-03-03T12:59:20.848Z,-0.28
2023-03-03T13:02:03.864Z,-0.30
2023-03-03T13:04:38.787Z,-0.46
2023-03-03T13:07:16.271Z,-0.37
2023-03-03T13:10:04.068Z,-0.29
2023-03-03T13:12:41.920Z,-0.50
2023-03-03T13:15:24.847Z,-0.65
2023-03-03T13:18:04.782Z,-0.77
2023-03-03T13:20:43.831Z,-0.60
2023-03-03T13:23:20.452Z,-0.64
2023-03-03T13:25:56.750Z,-0.69
2023-03-03T13:28:32.773Z,-0.73
2023-03-03T13:31:08.662Z,-0.63
2023-03-03T13:33:37.922Z,-0.57
2023-03-03T13:36:10.503Z,-0.65
2023-03-03T13:38:43.844Z,-0.74
2023-03-03T13:41:22.398Z,-0.67
2023-03-03T13:43:56.196Z,-0.45
2023-03-03T13:46:38.971Z,-0.59
2023-03-03T13:49:37.065Z,-0.51
2023-03-03T13:52:09.192Z,-0.55
2023-03-03T13:54:49.384Z,-0.55
2023-03-03T13:57:31.593Z,-0.45
2023-03-03T14:00:13.679Z,-0.34
2023-03-03T14:02:55.660Z,-0.40
2023-03-03T14:05:30.176Z,-0.42
2023-03-03T14:08:01.147Z,-0.12
2023-03-03T14:10:33.389Z,-0.25
2023-03-03T14:13:07.616Z,-0.42
2023-03-03T14:15:40.020Z,-0.49
2023-03-03T14:18:23.120Z,-0.59
2023-03-03T14:20:54.084Z,-0.55
2023-03-03T14:23:28.841Z,-0.63
2023-03-03T14:26:08.446Z,-0.60
2023-03-03T14:28:44.228Z,-0.63
2023-03-03T14:31:23.463Z,-1.02
2023-03-03T14:34:03.263Z,-1.02
2023-03-03T14:36:34.183Z,-1.05
2023-03-03T14:39:02.682Z,-1.01
2023-03-03T14:41:41.738Z,-0.96
2023-03-03T14:44:29.757Z,-0.96
2023-03-03T14:47:18.493Z,-0.85
2023-03-03T14:49:46.941Z,-1.07
2023-03-03T14:52:26.054Z,-0.98
2023-03-03T14:54:56.435Z,-1.05
2023-03-03T14:57:46.518Z,-1.04
2023-03-03T15:00:36.343Z,-0.95
2023-03-03T15:03:23.316Z,-1.01
2023-03-03T15:05:52.812Z,-1.28
2023-03-03T15:08:31.961Z,-1.35
2023-03-03T15:11:15.015Z,-1.32
2023-03-03T15:13:43.364Z,-1.33
2023-03-03T15:16:19.598Z,-1.41
2023-03-03T15:19:19.755Z,-1.45
2023-03-03T15:22:00.881Z,-1.38
2023-03-03T15:24:39.494Z,-1.43
2023-03-03T15:27:15.552Z,-1.44
2023-03-03T15:29:57.028Z,-1.50
2023-03-03T15:32:31.312Z,-1.50
2023-03-03T15:35:13.913Z,-1.49
2023-03-03T15:37:50.810Z,-1.64
2023-03-03T15:40:28.549Z,-1.67
2023-03-03T15:43:05.773Z,-1.59
2023-03-03T15:45:40.630Z,-1.64
2023-03-03T15:48:35.633Z,-1.66
2023-03-03T15:51:10.471Z,-1.71
2023-03-03T15:54:02.373Z,-1.72
2023-03-03T15:56:38.774Z,-1.69
2023-03-03T15:59:42.347Z,-1.71
2023-03-03T16:02:17.954Z,-1.78
2023-03-03T16:04:56.148Z,-1.81
2023-03-03T16:07:37.337Z,-1.83
2023-03-03T16:10:20.912Z,-1.83
2023-03-03T16:13:00.409Z,-1.90
2023-03-03T16:15:46.102Z,-1.91
2023-03-03T16:18:24.308Z,-1.95
2023-03-03T16:21:04.977Z,-2.05
2023-03-03T16:23:47.427Z,-2.09
2023-03-03T16:26:28.711Z,-2.10
2023-03-03T16:29:09.624Z,-2.25
2023-03-03T16:31:43.028Z,-2.16
2023-03-03T16:34:18.610Z,-2.11
2023-03-03T16:36:58.468Z,-2.08
2023-03-03T16:39:37.169Z,-2.20
2023-03-03T16:42:13.813Z,-2.22
2023-03-03T16:44:51.042Z,-2.18
2023-03-03T16:47:33.704Z,-2.18
2023-03-03T16:50:15.851Z,-2.22
2023-03-03T16:52:49.820Z,-2.33
2023-03-03T16:55:22.944Z,-2.31
2023-03-03T16:58:04.920Z,-2.32
2023-03-03T17:00:40.038Z,-2.21
2023-03-03T17:03:25.324Z,-2.23
2023-03-03T17:05:58.063Z,-2.30
2023-03-03T17:08:57.924Z,-2.26
2023-03-03T17:11:35.083Z,-2.27
2023-03-03T17:14:28.061Z,-2.22
2023-03-03T17:17:01.509Z,-2.32
2023-03-03T17:19:44.052Z,-2.32
2023-03-03T17:22:19.351Z,-2.32
2023-03-03T17:25:04.042Z,-2.34
2023-03-03T17:27:47.510Z,-2.33
2023-03-03T17:30:22.407Z,-2.36
2023-03-03T17:33:23.219Z,-2.26
2023-03-03T17:36:05.749Z,-2.27
2023-03-03T17:38:49.322Z,-2.32
2023-03-03T17:41:26.888Z,-2.35
2023-03-03T17:44:03.397Z,-2.34
2023-03-03T17:46:37.125Z,-2.44
2023-03-03T17:49:30.094Z,-2.45
2023-03-03T17:52:13.268Z,-2.41
2023-03-03T17:55:10.637Z,-2.34
2023-03-03T17:57:53.598Z,-2.39
2023-03-03T18:00:37.137Z,-2.39
2023-03-03T18:03:40.828Z,-2.48
2023-03-03T18:06:38.072Z,-2.47
2023-03-03T18:09:22.318Z,-2.46
2023-03-03T18:12:05.290Z,-2.37
2023-03-03T18:15:04.263Z,-2.39
2023-03-03T18:17:37.615Z,-2.50
2023-03-03T18:20:36.451Z,-2.44
2023-03-03T18:23:43.605Z,-2.45
2023-03-03T18:26:34.540Z,-2.39
2023-03-03T18:29:22.401Z,-2.38
2023-03-03T18:32:04.606Z,-2.37
2023-03-03T18:34:38.966Z,-2.41
2023-03-03T18:37:12.804Z,-2.43
2023-03-03T18:39:46.727Z,-2.45
2023-03-03T18:42:37.709Z,-2.49
2023-03-03T18:45:51.483Z,-2.46
2023-03-03T18:48:49.414Z,-2.42
2023-03-03T18:52:14.052Z,-2.54
2023-03-03T18:54:42.251Z,-2.47
2023-03-03T18:57:20.628Z,-2.44
2023-03-03T19:00:17.306Z,-2.42
2023-03-03T19:02:55.308Z,-2.38
2023-03-03T19:05:29.021Z,-2.35
2023-03-03T19:08:02.908Z,-2.30
2023-03-03T19:10:50.968Z,-2.28
2023-03-03T19:13:44.692Z,-2.35
2023-03-03T19:16:30.633Z,-2.48
2023-03-03T19:19:02.188Z,-2.47
2023-03-03T19:21:34.474Z,-2.54
2023-03-03T19:24:04.558Z,-2.55
2023-03-03T19:26:51.741Z,-2.58
2023-03-03T19:29:34.758Z,-2.48
2023-03-03T19:32:19.933Z,-2.54
2023-03-03T19:34:56.001Z,-2.53
2023-03-03T19:37:40.565Z,-2.51
2023-03-03T19:40:21.045Z,-2.52
2023-03-03T19:43:00.593Z,-2.55
2023-03-03T19:45:49.430Z,-2.49
2023-03-03T19:48:26.979Z,-2.43
2023-03-03T19:51:03.264Z,-2.43
2023-03-03T19:53:40.383Z,-2.45
2023-03-03T19:56:29.841Z,-2.38
2023-03-03T19:59:09.607Z,-2.33
2023-03-03T20:01:49.550Z,-2.37
2023-03-03T20:04:38.337Z,-2.45
2023-03-03T20:07:22.786Z,-2.42
2023-03-03T20:10:01.331Z,-2.40
2023-03-03T20:12:54.490Z,-2.39
2023-03-03T20:15:29.526Z,-2.37
2023-03-03T20:18:22.332Z,-2.34
2023-03-03T20:21:00.938Z,-2.35
2023-03-03T20:23:36.819Z,-2.31
2023-03-03T20:26:15.484Z,-2.32
2023-03-03T20:29:22.795Z,-2.37
2023-03-03T20:31:57.946Z,-2.33
2023-03-03T20:34:37.652Z,-2.31
2023-03-03T20:37:10.039Z,-2.31
2023-03-03T20:39:58.956Z,-2.28
2023-03-03T20:42:42.265Z,-2.28
2023-03-03T20:45:23.366Z,-2.28
2023-03-03T20:48:01.424Z,-2.21
2023-03-03T20:50:37.584Z,-2.18
2023-03-03T20:53:18.182Z,-2.17
2023-03-03T20:55:56.104Z,-2.14
2023-03-03T20:58:35.419Z,-2.15
2023-03-03T21:01:07.946Z,-2.20
2023-03-03T21:03:38.502Z,-2.15
2023-03-03T21:06:09.413Z,-2.10
2023-03-03T21:08:53.331Z,-2.08
2023-03-03T21:11:24.082Z,-2.12
2023-03-03T21:13:54.952Z,-2.10
2023-03-03T21:16:36.038Z,-2.12
2023-03-03T21:19:06.431Z,-2.14
2023-03-03T21:21:36.122Z,-2.10
2023-03-03T21:24:04.850Z,-2.09
2023-03-03T21:26:54.470Z,-2.11
2023-03-03T21:29:27.822Z,-2.11
2023-03-03T21:31:57.809Z,-2.09
2023-03-03T21:34:30.090Z,-2.09
2023-03-03T21:37:00.216Z,-2.07
2023-03-03T21:39:31.109Z,-2.08
2023-03-03T21:42:03.009Z,-2.08
2023-03-03T21:44:44.281Z,-2.07
2023-03-03T21:47:15.498Z,-2.05
2023-03-03T21:49:44.559Z,-2.06
2023-03-03T21:52:16.611Z,-2.10
2023-03-03T21:54:45.291Z,-2.09
2023-03-03T21:57:14.169Z,-2.08
2023-03-03T21:59:43.782Z,-2.07
2023-03-03T22:02:11.915Z,-2.08
2023-03-03T22:04:41.249Z,-2.06
2023-03-03T22:07:09.886Z,-2.06
2023-03-03T22:09:39.341Z,-2.09
2023-03-03T22:12:08.628Z,-2.06
2023-03-03T22:14:36.873Z,-2.02
2023-03-03T22:17:06.296Z,-2.00
2023-03-03T22:19:34.909Z,-2.04
2023-03-03T22:22:03.349Z,-2.01
2023-03-03T22:24:32.404Z,-2.03
2023-03-03T22:27:01.030Z,-1.98
2023-03-03T22:29:29.046Z,-1.94
2023-03-03T22:31:57.300Z,-1.95
2023-03-03T22:34:27.225Z,-1.98
2023-03-03T22:36:55.468Z,-1.99
2023-03-03T22:39:23.648Z,-1.98
2023-03-03T22:41:51.883Z,-1.94
2023-03-03T22:44:20.378Z,-1.95
2023-03-03T22:46:48.653Z,-1.90
2023-03-03T22:49:17.072Z,-1.96
2023-03-03T22:51:46.566Z,-1.95
2023-03-03T22:54:14.681Z,-1.90
2023-03-03T22:56:42.854Z,-1.93
2023-03-03T22:59:11.137Z,-1.91
2023-03-03T23:01:39.334Z,-1.93
2023-03-03T23:04:07.661Z,-1.94
2023-03-03T23:06:36.291Z,-1.93
2023-03-03T23:09:06.070Z,-1.90
2023-03-03T23:11:35.002Z,-1.94
2023-03-03T23:14:03.174Z,-1.91
2023-03-03T23:16:31.360Z,-1.92
2023-03-03T23:18:59.502Z,-1.91
2023-03-03T23:21:28.041Z,-1.88
2023-03-03T23:23:56.473Z,-1.88
2023-03-03T23:26:26.223Z,-1.93
2023-03-03T23:28:54.296Z,-1.89
2023-03-03T23:31:22.385Z,-1.88
2023-03-03T23:33:50.385Z,-1.89
2023-03-03T23:36:19.234Z,-1.86
2023-03-03T23:38:47.532Z,-1.88
2023-03-03T23:41:15.881Z,-1.86
2023-03-03T23:43:45.404Z,-1.88
2023-03-03T23:46:13.421Z,-1.89
2023-03-03T23:48:41.825Z,-1.90
2023-03-03T23:51:09.887Z,-1.89
2023-03-03T23:53:37.932Z,-1.84
2023-03-03T23:56:06.813Z,-1.89
2023-03-03T23:58:35.300Z,-1.91
